sensor_id;sensor_type;location;lat;lon;timestamp;P1;durP1;ratioP1;P2;durP2;ratioP2
38851;SDS011;24605;50.092;9.182;2022-12-07T00:00:46;23.90;;;11.90;;
38851;SDS011;24605;50.092;9.182;2022-12-07T00:03:12;26.42;;;11.95;;
38851;SDS011;24605;50.092;9.182;2022-12-07T00:05:39;25.58;;;11.75;;
38851;SDS011;24605;50.092;9.182;2022-12-07T00:08:06;25.80;;;12.43;;
38851;SDS011;24605;50.092;9.182;2022-12-07T00:10:32;25.10;;;12.60;;
38851;SDS011;24605;50.092;9.182;2022-12-07T00:12:59;27.58;;;12.05;;
38851;SDS011;24605;50.092;9.182;2022-12-07T00:15:26;28.02;;;12.85;;
38851;SDS011;24605;50.092;9.182;2022-12-07T00:17:54;29.63;;;12.43;;
38851;SDS011;24605;50.092;9.182;2022-12-07T00:20:20;27.67;;;12.10;;
38851;SDS011;24605;50.092;9.182;2022-12-07T00:22:46;26.00;;;11.95;;
38851;SDS011;24605;50.092;9.182;2022-12-07T00:25:13;26.88;;;11.90;;
38851;SDS011;24605;50.092;9.182;2022-12-07T00:27:39;27.25;;;12.45;;
38851;SDS011;24605;50.092;9.182;2022-12-07T00:30:06;26.85;;;12.63;;
38851;SDS011;24605;50.092;9.182;2022-12-07T00:32:33;29.48;;;12.80;;
38851;SDS011;24605;50.092;9.182;2022-12-07T00:35:01;27.15;;;12.57;;
38851;SDS011;24605;50.092;9.182;2022-12-07T00:37:27;26.23;;;12.65;;
38851;SDS011;24605;50.092;9.182;2022-12-07T00:39:54;25.52;;;12.32;;
38851;SDS011;24605;50.092;9.182;2022-12-07T00:42:20;27.48;;;12.60;;
38851;SDS011;24605;50.092;9.182;2022-12-07T00:44:47;30.42;;;12.95;;
38851;SDS011;24605;50.092;9.182;2022-12-07T00:47:14;29.88;;;12.63;;
38851;SDS011;24605;50.092;9.182;2022-12-07T00:49:40;29.80;;;13.45;;
38851;SDS011;24605;50.092;9.182;2022-12-07T00:52:08;29.33;;;13.05;;
38851;SDS011;24605;50.092;9.182;2022-12-07T00:54:34;29.13;;;13.13;;
38851;SDS011;24605;50.092;9.182;2022-12-07T00:57:01;31.10;;;13.65;;
38851;SDS011;24605;50.092;9.182;2022-12-07T00:59:27;31.55;;;13.23;;
38851;SDS011;24605;50.092;9.182;2022-12-07T01:01:54;32.28;;;13.98;;
38851;SDS011;24605;50.092;9.182;2022-12-07T01:04:20;32.65;;;13.73;;
38851;SDS011;24605;50.092;9.182;2022-12-07T01:06:47;33.00;;;14.07;;
38851;SDS011;24605;50.092;9.182;2022-12-07T01:09:14;31.75;;;13.95;;
38851;SDS011;24605;50.092;9.182;2022-12-07T01:11:41;31.85;;;13.80;;
38851;SDS011;24605;50.092;9.182;2022-12-07T01:14:08;35.65;;;15.13;;
38851;SDS011;24605;50.092;9.182;2022-12-07T01:16:35;32.33;;;14.15;;
38851;SDS011;24605;50.092;9.182;2022-12-07T01:19:02;32.67;;;13.90;;
38851;SDS011;24605;50.092;9.182;2022-12-07T01:21:30;36.97;;;14.93;;
38851;SDS011;24605;50.092;9.182;2022-12-07T01:23:59;37.30;;;15.38;;
38851;SDS011;24605;50.092;9.182;2022-12-07T01:26:27;33.10;;;15.18;;
38851;SDS011;24605;50.092;9.182;2022-12-07T01:28:54;36.85;;;15.63;;
38851;SDS011;24605;50.092;9.182;2022-12-07T01:31:22;39.63;;;17.13;;
38851;SDS011;24605;50.092;9.182;2022-12-07T01:33:51;38.55;;;15.07;;
38851;SDS011;24605;50.092;9.182;2022-12-07T01:36:20;35.72;;;16.08;;
38851;SDS011;24605;50.092;9.182;2022-12-07T01:38:49;37.33;;;16.48;;
38851;SDS011;24605;50.092;9.182;2022-12-07T01:41:17;36.88;;;16.15;;
38851;SDS011;24605;50.092;9.182;2022-12-07T01:46:43;33.90;;;15.65;;
38851;SDS011;24605;50.092;9.182;2022-12-07T01:49:13;32.92;;;14.93;;
38851;SDS011;24605;50.092;9.182;2022-12-07T01:51:43;36.00;;;15.88;;
38851;SDS011;24605;50.092;9.182;2022-12-07T01:54:13;35.25;;;15.43;;
38851;SDS011;24605;50.092;9.182;2022-12-07T01:56:42;39.20;;;16.02;;
38851;SDS011;24605;50.092;9.182;2022-12-07T01:59:16;39.92;;;16.35;;
38851;SDS011;24605;50.092;9.182;2022-12-07T02:01:45;37.95;;;16.63;;
38851;SDS011;24605;50.092;9.182;2022-12-07T02:04:12;35.97;;;16.08;;
38851;SDS011;24605;50.092;9.182;2022-12-07T02:06:38;36.40;;;16.77;;
38851;SDS011;24605;50.092;9.182;2022-12-07T02:09:07;44.20;;;16.38;;
38851;SDS011;24605;50.092;9.182;2022-12-07T02:11:34;41.80;;;17.75;;
38851;SDS011;24605;50.092;9.182;2022-12-07T02:14:00;39.65;;;17.33;;
38851;SDS011;24605;50.092;9.182;2022-12-07T02:16:30;41.95;;;18.25;;
38851;SDS011;24605;50.092;9.182;2022-12-07T02:21:58;46.17;;;17.23;;
38851;SDS011;24605;50.092;9.182;2022-12-07T02:24:42;44.10;;;18.27;;
38851;SDS011;24605;50.092;9.182;2022-12-07T02:27:26;44.97;;;18.13;;
38851;SDS011;24605;50.092;9.182;2022-12-07T02:30:03;42.85;;;17.35;;
38851;SDS011;24605;50.092;9.182;2022-12-07T02:32:35;43.65;;;17.65;;
38851;SDS011;24605;50.092;9.182;2022-12-07T02:35:09;44.92;;;18.45;;
38851;SDS011;24605;50.092;9.182;2022-12-07T02:37:42;42.80;;;18.55;;
38851;SDS011;24605;50.092;9.182;2022-12-07T02:40:15;45.42;;;17.17;;
38851;SDS011;24605;50.092;9.182;2022-12-07T02:42:51;45.95;;;18.75;;
38851;SDS011;24605;50.092;9.182;2022-12-07T02:45:25;43.65;;;17.65;;
38851;SDS011;24605;50.092;9.182;2022-12-07T02:47:56;40.95;;;16.92;;
38851;SDS011;24605;50.092;9.182;2022-12-07T02:50:25;42.50;;;17.52;;
38851;SDS011;24605;50.092;9.182;2022-12-07T02:52:52;40.45;;;16.90;;
38851;SDS011;24605;50.092;9.182;2022-12-07T02:55:19;42.03;;;18.30;;
38851;SDS011;24605;50.092;9.182;2022-12-07T02:58:03;41.72;;;17.00;;
38851;SDS011;24605;50.092;9.182;2022-12-07T03:00:50;41.78;;;17.23;;
38851;SDS011;24605;50.092;9.182;2022-12-07T03:03:20;39.47;;;16.45;;
38851;SDS011;24605;50.092;9.182;2022-12-07T03:05:52;38.40;;;15.73;;
38851;SDS011;24605;50.092;9.182;2022-12-07T03:08:28;39.47;;;16.35;;
38851;SDS011;24605;50.092;9.182;2022-12-07T03:11:00;42.85;;;15.75;;
38851;SDS011;24605;50.092;9.182;2022-12-07T03:13:30;33.88;;;15.18;;
38851;SDS011;24605;50.092;9.182;2022-12-07T03:16:07;38.67;;;15.43;;
38851;SDS011;24605;50.092;9.182;2022-12-07T03:18:39;37.47;;;15.57;;
38851;SDS011;24605;50.092;9.182;2022-12-07T03:21:10;35.92;;;16.38;;
38851;SDS011;24605;50.092;9.182;2022-12-07T03:23:40;33.45;;;14.93;;
38851;SDS011;24605;50.092;9.182;2022-12-07T03:26:10;35.78;;;14.98;;
38851;SDS011;24605;50.092;9.182;2022-12-07T03:28:41;33.72;;;14.35;;
38851;SDS011;24605;50.092;9.182;2022-12-07T03:31:14;32.25;;;13.98;;
38851;SDS011;24605;50.092;9.182;2022-12-07T03:33:47;32.42;;;14.10;;
38851;SDS011;24605;50.092;9.182;2022-12-07T03:36:18;31.13;;;13.48;;
38851;SDS011;24605;50.092;9.182;2022-12-07T03:38:50;31.23;;;13.82;;
38851;SDS011;24605;50.092;9.182;2022-12-07T03:41:22;29.88;;;13.98;;
38851;SDS011;24605;50.092;9.182;2022-12-07T03:43:50;29.95;;;12.23;;
38851;SDS011;24605;50.092;9.182;2022-12-07T03:46:20;31.40;;;13.73;;
38851;SDS011;24605;50.092;9.182;2022-12-07T03:48:54;30.67;;;13.00;;
38851;SDS011;24605;50.092;9.182;2022-12-07T03:51:25;25.17;;;11.85;;
38851;SDS011;24605;50.092;9.182;2022-12-07T03:53:57;29.58;;;12.95;;
38851;SDS011;24605;50.092;9.182;2022-12-07T03:56:31;26.67;;;13.07;;
38851;SDS011;24605;50.092;9.182;2022-12-07T03:58:59;29.60;;;12.75;;
38851;SDS011;24605;50.092;9.182;2022-12-07T04:01:27;28.23;;;12.52;;
38851;SDS011;24605;50.092;9.182;2022-12-07T04:03:54;27.42;;;12.23;;
38851;SDS011;24605;50.092;9.182;2022-12-07T04:06:20;24.33;;;11.77;;
38851;SDS011;24605;50.092;9.182;2022-12-07T04:08:47;26.23;;;12.13;;
38851;SDS011;24605;50.092;9.182;2022-12-07T04:11:13;28.30;;;13.15;;
38851;SDS011;24605;50.092;9.182;2022-12-07T04:13:40;27.50;;;12.07;;
38851;SDS011;24605;50.092;9.182;2022-12-07T04:16:24;30.40;;;13.53;;
38851;SDS011;24605;50.092;9.182;2022-12-07T04:18:51;29.00;;;13.65;;
38851;SDS011;24605;50.092;9.182;2022-12-07T04:21:18;26.58;;;12.93;;
38851;SDS011;24605;50.092;9.182;2022-12-07T04:23:44;29.33;;;12.77;;
38851;SDS011;24605;50.092;9.182;2022-12-07T04:26:11;26.30;;;12.77;;
38851;SDS011;24605;50.092;9.182;2022-12-07T04:28:37;26.77;;;12.98;;
38851;SDS011;24605;50.092;9.182;2022-12-07T04:31:04;28.92;;;13.07;;
38851;SDS011;24605;50.092;9.182;2022-12-07T04:33:30;31.23;;;13.95;;
38851;SDS011;24605;50.092;9.182;2022-12-07T04:35:58;26.75;;;12.32;;
38851;SDS011;24605;50.092;9.182;2022-12-07T04:38:25;26.73;;;12.68;;
38851;SDS011;24605;50.092;9.182;2022-12-07T04:40:51;28.65;;;12.95;;
38851;SDS011;24605;50.092;9.182;2022-12-07T04:43:18;28.13;;;12.35;;
38851;SDS011;24605;50.092;9.182;2022-12-07T04:45:45;29.25;;;12.32;;
38851;SDS011;24605;50.092;9.182;2022-12-07T04:48:12;28.55;;;12.50;;
38851;SDS011;24605;50.092;9.182;2022-12-07T04:50:39;27.83;;;11.98;;
38851;SDS011;24605;50.092;9.182;2022-12-07T04:53:07;31.67;;;13.38;;
38851;SDS011;24605;50.092;9.182;2022-12-07T04:55:33;30.20;;;12.80;;
38851;SDS011;24605;50.092;9.182;2022-12-07T04:58:00;30.05;;;13.68;;
38851;SDS011;24605;50.092;9.182;2022-12-07T05:00:26;28.60;;;13.13;;
38851;SDS011;24605;50.092;9.182;2022-12-07T05:02:53;31.40;;;13.27;;
38851;SDS011;24605;50.092;9.182;2022-12-07T05:05:19;30.35;;;13.50;;
38851;SDS011;24605;50.092;9.182;2022-12-07T05:07:45;30.70;;;13.40;;
38851;SDS011;24605;50.092;9.182;2022-12-07T05:10:13;27.08;;;12.60;;
38851;SDS011;24605;50.092;9.182;2022-12-07T05:12:40;31.85;;;12.82;;
38851;SDS011;24605;50.092;9.182;2022-12-07T05:15:06;32.40;;;14.05;;
38851;SDS011;24605;50.092;9.182;2022-12-07T05:17:33;27.83;;;12.45;;
38851;SDS011;24605;50.092;9.182;2022-12-07T05:20:00;28.15;;;11.90;;
38851;SDS011;24605;50.092;9.182;2022-12-07T05:22:26;26.60;;;12.52;;
38851;SDS011;24605;50.092;9.182;2022-12-07T05:24:53;26.95;;;12.65;;
38851;SDS011;24605;50.092;9.182;2022-12-07T05:27:21;28.67;;;12.45;;
38851;SDS011;24605;50.092;9.182;2022-12-07T05:29:49;27.40;;;12.38;;
38851;SDS011;24605;50.092;9.182;2022-12-07T05:32:15;29.30;;;12.25;;
38851;SDS011;24605;50.092;9.182;2022-12-07T05:34:42;26.23;;;11.93;;
38851;SDS011;24605;50.092;9.182;2022-12-07T05:37:08;26.38;;;11.73;;
38851;SDS011;24605;50.092;9.182;2022-12-07T05:39:35;30.67;;;13.18;;
38851;SDS011;24605;50.092;9.182;2022-12-07T05:42:02;25.70;;;11.98;;
38851;SDS011;24605;50.092;9.182;2022-12-07T05:44:40;29.25;;;12.10;;
38851;SDS011;24605;50.092;9.182;2022-12-07T05:47:07;26.73;;;12.43;;
38851;SDS011;24605;50.092;9.182;2022-12-07T05:49:33;30.98;;;12.68;;
38851;SDS011;24605;50.092;9.182;2022-12-07T05:52:00;29.13;;;12.52;;
38851;SDS011;24605;50.092;9.182;2022-12-07T05:54:26;26.65;;;11.30;;
38851;SDS011;24605;50.092;9.182;2022-12-07T05:56:53;28.27;;;12.88;;
38851;SDS011;24605;50.092;9.182;2022-12-07T05:59:19;28.08;;;13.27;;
38851;SDS011;24605;50.092;9.182;2022-12-07T06:01:49;28.30;;;12.25;;
38851;SDS011;24605;50.092;9.182;2022-12-07T06:04:16;26.98;;;13.57;;
38851;SDS011;24605;50.092;9.182;2022-12-07T06:06:43;31.00;;;13.88;;
38851;SDS011;24605;50.092;9.182;2022-12-07T06:09:10;30.15;;;13.52;;
38851;SDS011;24605;50.092;9.182;2022-12-07T06:11:37;26.33;;;12.60;;
38851;SDS011;24605;50.092;9.182;2022-12-07T06:14:21;29.00;;;12.13;;
38851;SDS011;24605;50.092;9.182;2022-12-07T06:16:49;26.27;;;11.85;;
38851;SDS011;24605;50.092;9.182;2022-12-07T06:19:16;26.35;;;12.60;;
38851;SDS011;24605;50.092;9.182;2022-12-07T06:21:42;29.52;;;12.98;;
38851;SDS011;24605;50.092;9.182;2022-12-07T06:24:09;28.83;;;12.43;;
38851;SDS011;24605;50.092;9.182;2022-12-07T06:26:37;29.83;;;12.27;;
38851;SDS011;24605;50.092;9.182;2022-12-07T06:29:04;27.30;;;12.18;;
38851;SDS011;24605;50.092;9.182;2022-12-07T06:31:30;24.98;;;11.65;;
38851;SDS011;24605;50.092;9.182;2022-12-07T06:33:59;24.45;;;11.82;;
38851;SDS011;24605;50.092;9.182;2022-12-07T06:36:26;25.60;;;11.82;;
38851;SDS011;24605;50.092;9.182;2022-12-07T06:38:53;32.08;;;13.18;;
38851;SDS011;24605;50.092;9.182;2022-12-07T06:41:20;26.35;;;10.90;;
38851;SDS011;24605;50.092;9.182;2022-12-07T06:43:47;27.35;;;12.65;;
38851;SDS011;24605;50.092;9.182;2022-12-07T06:46:14;27.15;;;12.82;;
38851;SDS011;24605;50.092;9.182;2022-12-07T06:48:41;28.48;;;12.90;;
38851;SDS011;24605;50.092;9.182;2022-12-07T06:51:09;24.67;;;12.80;;
38851;SDS011;24605;50.092;9.182;2022-12-07T06:53:36;29.38;;;13.02;;
38851;SDS011;24605;50.092;9.182;2022-12-07T06:56:04;32.13;;;12.82;;
38851;SDS011;24605;50.092;9.182;2022-12-07T06:58:31;33.53;;;14.43;;
38851;SDS011;24605;50.092;9.182;2022-12-07T07:00:57;30.98;;;14.25;;
38851;SDS011;24605;50.092;9.182;2022-12-07T07:03:24;30.88;;;14.65;;
38851;SDS011;24605;50.092;9.182;2022-12-07T07:05:50;30.25;;;14.38;;
38851;SDS011;24605;50.092;9.182;2022-12-07T07:08:18;27.58;;;13.75;;
38851;SDS011;24605;50.092;9.182;2022-12-07T07:10:44;30.85;;;14.65;;
38851;SDS011;24605;50.092;9.182;2022-12-07T07:13:11;30.42;;;13.07;;
38851;SDS011;24605;50.092;9.182;2022-12-07T07:15:37;29.33;;;12.88;;
38851;SDS011;24605;50.092;9.182;2022-12-07T07:18:04;26.05;;;13.52;;
38851;SDS011;24605;50.092;9.182;2022-12-07T07:20:31;32.22;;;15.02;;
38851;SDS011;24605;50.092;9.182;2022-12-07T07:22:57;28.80;;;14.00;;
38851;SDS011;24605;50.092;9.182;2022-12-07T07:25:25;29.52;;;13.15;;
38851;SDS011;24605;50.092;9.182;2022-12-07T07:27:51;36.97;;;15.38;;
38851;SDS011;24605;50.092;9.182;2022-12-07T07:30:19;34.33;;;15.52;;
38851;SDS011;24605;50.092;9.182;2022-12-07T07:32:46;33.05;;;14.05;;
38851;SDS011;24605;50.092;9.182;2022-12-07T07:35:12;30.70;;;13.93;;
38851;SDS011;24605;50.092;9.182;2022-12-07T07:37:39;33.03;;;14.45;;
38851;SDS011;24605;50.092;9.182;2022-12-07T07:40:06;31.85;;;15.77;;
38851;SDS011;24605;50.092;9.182;2022-12-07T07:42:35;37.03;;;16.92;;
38851;SDS011;24605;50.092;9.182;2022-12-07T07:45:01;40.78;;;16.80;;
38851;SDS011;24605;50.092;9.182;2022-12-07T07:47:28;36.13;;;15.10;;
38851;SDS011;24605;50.092;9.182;2022-12-07T07:49:55;38.97;;;17.50;;
38851;SDS011;24605;50.092;9.182;2022-12-07T07:52:22;37.63;;;16.33;;
38851;SDS011;24605;50.092;9.182;2022-12-07T07:54:48;29.40;;;14.15;;
38851;SDS011;24605;50.092;9.182;2022-12-07T07:57:15;35.13;;;15.63;;
38851;SDS011;24605;50.092;9.182;2022-12-07T07:59:44;35.33;;;15.05;;
38851;SDS011;24605;50.092;9.182;2022-12-07T08:02:11;32.42;;;15.07;;
38851;SDS011;24605;50.092;9.182;2022-12-07T08:04:40;39.30;;;18.08;;
38851;SDS011;24605;50.092;9.182;2022-12-07T08:07:07;32.75;;;15.32;;
38851;SDS011;24605;50.092;9.182;2022-12-07T08:09:33;34.95;;;16.10;;
38851;SDS011;24605;50.092;9.182;2022-12-07T08:12:00;31.45;;;15.18;;
38851;SDS011;24605;50.092;9.182;2022-12-07T08:14:26;34.88;;;15.02;;
38851;SDS011;24605;50.092;9.182;2022-12-07T08:16:55;32.38;;;15.35;;
38851;SDS011;24605;50.092;9.182;2022-12-07T08:19:21;30.95;;;14.50;;
38851;SDS011;24605;50.092;9.182;2022-12-07T08:21:48;33.33;;;14.95;;
38851;SDS011;24605;50.092;9.182;2022-12-07T08:24:15;29.20;;;14.43;;
38851;SDS011;24605;50.092;9.182;2022-12-07T08:26:42;31.27;;;13.68;;
38851;SDS011;24605;50.092;9.182;2022-12-07T08:29:08;29.13;;;14.35;;
38851;SDS011;24605;50.092;9.182;2022-12-07T08:31:35;27.45;;;13.82;;
38851;SDS011;24605;50.092;9.182;2022-12-07T08:34:03;28.70;;;13.63;;
38851;SDS011;24605;50.092;9.182;2022-12-07T08:36:30;30.15;;;14.80;;
38851;SDS011;24605;50.092;9.182;2022-12-07T08:38:56;28.23;;;14.25;;
38851;SDS011;24605;50.092;9.182;2022-12-07T08:41:22;30.75;;;14.30;;
38851;SDS011;24605;50.092;9.182;2022-12-07T08:43:50;32.95;;;14.90;;
38851;SDS011;24605;50.092;9.182;2022-12-07T08:46:17;32.72;;;14.75;;
38851;SDS011;24605;50.092;9.182;2022-12-07T08:48:48;28.30;;;15.88;;
38851;SDS011;24605;50.092;9.182;2022-12-07T08:51:20;30.05;;;14.57;;
38851;SDS011;24605;50.092;9.182;2022-12-07T08:53:48;25.38;;;14.18;;
38851;SDS011;24605;50.092;9.182;2022-12-07T08:56:15;27.27;;;13.60;;
38851;SDS011;24605;50.092;9.182;2022-12-07T08:58:42;30.63;;;14.45;;
38851;SDS011;24605;50.092;9.182;2022-12-07T09:01:09;28.52;;;14.18;;
38851;SDS011;24605;50.092;9.182;2022-12-07T09:03:36;30.48;;;14.90;;
38851;SDS011;24605;50.092;9.182;2022-12-07T09:06:02;30.63;;;15.32;;
38851;SDS011;24605;50.092;9.182;2022-12-07T09:08:32;27.77;;;14.55;;
38851;SDS011;24605;50.092;9.182;2022-12-07T09:11:00;27.25;;;14.13;;
38851;SDS011;24605;50.092;9.182;2022-12-07T09:13:27;30.13;;;13.55;;
38851;SDS011;24605;50.092;9.182;2022-12-07T09:15:53;28.63;;;14.48;;
38851;SDS011;24605;50.092;9.182;2022-12-07T09:18:20;27.75;;;13.35;;
38851;SDS011;24605;50.092;9.182;2022-12-07T09:20:46;30.15;;;13.27;;
38851;SDS011;24605;50.092;9.182;2022-12-07T09:23:12;28.02;;;13.88;;
38851;SDS011;24605;50.092;9.182;2022-12-07T09:25:40;29.30;;;12.93;;
38851;SDS011;24605;50.092;9.182;2022-12-07T09:28:07;26.55;;;14.18;;
38851;SDS011;24605;50.092;9.182;2022-12-07T09:30:33;29.58;;;15.18;;
38851;SDS011;24605;50.092;9.182;2022-12-07T09:33:00;28.58;;;15.25;;
38851;SDS011;24605;50.092;9.182;2022-12-07T09:35:27;30.23;;;14.40;;
38851;SDS011;24605;50.092;9.182;2022-12-07T09:37:53;31.98;;;15.90;;
38851;SDS011;24605;50.092;9.182;2022-12-07T09:40:20;28.92;;;14.48;;
38851;SDS011;24605;50.092;9.182;2022-12-07T09:42:50;28.50;;;15.65;;
38851;SDS011;24605;50.092;9.182;2022-12-07T09:45:21;29.73;;;13.65;;
38851;SDS011;24605;50.092;9.182;2022-12-07T09:47:49;25.10;;;12.98;;
38851;SDS011;24605;50.092;9.182;2022-12-07T09:50:16;25.10;;;12.82;;
38851;SDS011;24605;50.092;9.182;2022-12-07T09:52:46;23.73;;;12.75;;
38851;SDS011;24605;50.092;9.182;2022-12-07T09:55:16;26.25;;;12.30;;
38851;SDS011;24605;50.092;9.182;2022-12-07T09:57:46;24.63;;;13.32;;
38851;SDS011;24605;50.092;9.182;2022-12-07T10:00:19;25.30;;;13.07;;
38851;SDS011;24605;50.092;9.182;2022-12-07T10:02:47;25.75;;;13.15;;
38851;SDS011;24605;50.092;9.182;2022-12-07T10:05:18;23.23;;;12.57;;
38851;SDS011;24605;50.092;9.182;2022-12-07T10:07:48;27.23;;;12.40;;
38851;SDS011;24605;50.092;9.182;2022-12-07T10:10:15;23.83;;;11.27;;
38851;SDS011;24605;50.092;9.182;2022-12-07T10:12:52;19.65;;;11.18;;
38851;SDS011;24605;50.092;9.182;2022-12-07T10:15:37;22.67;;;11.82;;
38851;SDS011;24605;50.092;9.182;2022-12-07T10:18:17;22.75;;;11.88;;
38851;SDS011;24605;50.092;9.182;2022-12-07T10:20:46;20.25;;;10.52;;
38851;SDS011;24605;50.092;9.182;2022-12-07T10:23:14;21.23;;;10.60;;
38851;SDS011;24605;50.092;9.182;2022-12-07T10:25:41;21.40;;;10.90;;
38851;SDS011;24605;50.092;9.182;2022-12-07T10:28:12;20.17;;;10.70;;
38851;SDS011;24605;50.092;9.182;2022-12-07T10:30:49;19.27;;;10.30;;
38851;SDS011;24605;50.092;9.182;2022-12-07T10:33:29;21.17;;;10.60;;
38851;SDS011;24605;50.092;9.182;2022-12-07T10:35:59;19.00;;;9.45;;
38851;SDS011;24605;50.092;9.182;2022-12-07T10:38:27;22.58;;;9.73;;
38851;SDS011;24605;50.092;9.182;2022-12-07T10:41:04;18.70;;;9.95;;
38851;SDS011;24605;50.092;9.182;2022-12-07T10:43:31;17.83;;;9.88;;
38851;SDS011;24605;50.092;9.182;2022-12-07T10:46:06;20.08;;;9.98;;
38851;SDS011;24605;50.092;9.182;2022-12-07T10:49:02;19.75;;;10.45;;
38851;SDS011;24605;50.092;9.182;2022-12-07T10:51:40;20.75;;;9.63;;
38851;SDS011;24605;50.092;9.182;2022-12-07T10:54:14;22.23;;;10.52;;
38851;SDS011;24605;50.092;9.182;2022-12-07T10:56:52;22.67;;;10.55;;
38851;SDS011;24605;50.092;9.182;2022-12-07T10:59:37;19.98;;;10.85;;
38851;SDS011;24605;50.092;9.182;2022-12-07T11:02:17;19.83;;;9.85;;
38851;SDS011;24605;50.092;9.182;2022-12-07T11:04:55;18.92;;;9.90;;
38851;SDS011;24605;50.092;9.182;2022-12-07T11:07:29;18.52;;;9.10;;
38851;SDS011;24605;50.092;9.182;2022-12-07T11:10:05;19.60;;;10.30;;
38851;SDS011;24605;50.092;9.182;2022-12-07T11:15:43;20.50;;;10.75;;
38851;SDS011;24605;50.092;9.182;2022-12-07T11:18:24;17.08;;;9.02;;
38851;SDS011;24605;50.092;9.182;2022-12-07T11:20:56;22.20;;;10.50;;
38851;SDS011;24605;50.092;9.182;2022-12-07T11:23:36;16.05;;;9.43;;
38851;SDS011;24605;50.092;9.182;2022-12-07T11:26:13;15.25;;;8.70;;
38851;SDS011;24605;50.092;9.182;2022-12-07T11:28:53;15.90;;;8.48;;
38851;SDS011;24605;50.092;9.182;2022-12-07T11:31:34;20.10;;;9.20;;
38851;SDS011;24605;50.092;9.182;2022-12-07T11:34:15;15.77;;;8.15;;
38851;SDS011;24605;50.092;9.182;2022-12-07T11:36:49;13.60;;;7.80;;
38851;SDS011;24605;50.092;9.182;2022-12-07T11:39:22;17.58;;;9.10;;
38851;SDS011;24605;50.092;9.182;2022-12-07T11:41:54;15.25;;;8.38;;
38851;SDS011;24605;50.092;9.182;2022-12-07T11:44:31;13.23;;;7.55;;
38851;SDS011;24605;50.092;9.182;2022-12-07T11:47:05;16.02;;;8.27;;
38851;SDS011;24605;50.092;9.182;2022-12-07T11:49:40;17.23;;;8.57;;
38851;SDS011;24605;50.092;9.182;2022-12-07T11:52:12;15.32;;;8.77;;
38851;SDS011;24605;50.092;9.182;2022-12-07T11:54:45;16.52;;;7.90;;
38851;SDS011;24605;50.092;9.182;2022-12-07T11:57:12;19.10;;;9.48;;
38851;SDS011;24605;50.092;9.182;2022-12-07T11:59:45;16.00;;;8.63;;
38851;SDS011;24605;50.092;9.182;2022-12-07T12:02:16;15.00;;;8.30;;
38851;SDS011;24605;50.092;9.182;2022-12-07T12:04:51;18.10;;;9.40;;
38851;SDS011;24605;50.092;9.182;2022-12-07T12:07:22;17.05;;;8.70;;
38851;SDS011;24605;50.092;9.182;2022-12-07T12:09:52;16.65;;;8.98;;
38851;SDS011;24605;50.092;9.182;2022-12-07T12:12:35;14.25;;;7.93;;
38851;SDS011;24605;50.092;9.182;2022-12-07T12:15:20;16.85;;;8.20;;
38851;SDS011;24605;50.092;9.182;2022-12-07T12:18:10;16.55;;;8.07;;
38851;SDS011;24605;50.092;9.182;2022-12-07T12:21:01;15.68;;;7.45;;
38851;SDS011;24605;50.092;9.182;2022-12-07T12:23:33;15.52;;;7.38;;
38851;SDS011;24605;50.092;9.182;2022-12-07T12:26:06;10.98;;;4.53;;
38851;SDS011;24605;50.092;9.182;2022-12-07T12:28:39;11.75;;;3.78;;
38851;SDS011;24605;50.092;9.182;2022-12-07T12:31:15;10.55;;;4.15;;
38851;SDS011;24605;50.092;9.182;2022-12-07T12:33:55;7.32;;;2.35;;
38851;SDS011;24605;50.092;9.182;2022-12-07T12:36:26;7.10;;;3.00;;
38851;SDS011;24605;50.092;9.182;2022-12-07T12:39:11;7.75;;;2.20;;
38851;SDS011;24605;50.092;9.182;2022-12-07T12:41:58;5.63;;;2.03;;
38851;SDS011;24605;50.092;9.182;2022-12-07T12:47:53;4.28;;;1.73;;
38851;SDS011;24605;50.092;9.182;2022-12-07T12:52:58;7.63;;;2.83;;
38851;SDS011;24605;50.092;9.182;2022-12-07T12:55:52;7.70;;;2.25;;
38851;SDS011;24605;50.092;9.182;2022-12-07T12:58:50;8.15;;;2.40;;
38851;SDS011;24605;50.092;9.182;2022-12-07T13:01:53;7.07;;;2.85;;
38851;SDS011;24605;50.092;9.182;2022-12-07T13:10:22;6.32;;;2.90;;
38851;SDS011;24605;50.092;9.182;2022-12-07T13:12:56;9.48;;;2.85;;
38851;SDS011;24605;50.092;9.182;2022-12-07T13:15:33;7.25;;;2.72;;
38851;SDS011;24605;50.092;9.182;2022-12-07T13:18:03;7.80;;;2.97;;
38851;SDS011;24605;50.092;9.182;2022-12-07T13:20:52;7.80;;;3.78;;
38851;SDS011;24605;50.092;9.182;2022-12-07T13:23:21;9.32;;;3.85;;
38851;SDS011;24605;50.092;9.182;2022-12-07T13:25:58;9.35;;;3.70;;
38851;SDS011;24605;50.092;9.182;2022-12-07T13:28:32;10.20;;;3.83;;
38851;SDS011;24605;50.092;9.182;2022-12-07T13:31:14;7.57;;;3.45;;
38851;SDS011;24605;50.092;9.182;2022-12-07T13:33:46;10.48;;;3.95;;
38851;SDS011;24605;50.092;9.182;2022-12-07T13:36:21;11.52;;;4.57;;
38851;SDS011;24605;50.092;9.182;2022-12-07T13:38:51;8.82;;;4.43;;
38851;SDS011;24605;50.092;9.182;2022-12-07T13:41:21;10.68;;;5.00;;
38851;SDS011;24605;50.092;9.182;2022-12-07T13:43:50;10.55;;;5.90;;
38851;SDS011;24605;50.092;9.182;2022-12-07T13:46:26;11.15;;;5.78;;
38851;SDS011;24605;50.092;9.182;2022-12-07T13:49:01;12.50;;;5.68;;
38851;SDS011;24605;50.092;9.182;2022-12-07T13:51:28;11.40;;;5.80;;
38851;SDS011;24605;50.092;9.182;2022-12-07T13:54:01;12.23;;;6.45;;
38851;SDS011;24605;50.092;9.182;2022-12-07T13:56:37;13.43;;;5.95;;
38851;SDS011;24605;50.092;9.182;2022-12-07T13:59:04;12.52;;;6.40;;
38851;SDS011;24605;50.092;9.182;2022-12-07T14:01:38;13.98;;;6.80;;
38851;SDS011;24605;50.092;9.182;2022-12-07T14:04:18;11.77;;;5.50;;
38851;SDS011;24605;50.092;9.182;2022-12-07T14:06:49;7.47;;;3.97;;
38851;SDS011;24605;50.092;9.182;2022-12-07T14:09:17;9.80;;;4.20;;
38851;SDS011;24605;50.092;9.182;2022-12-07T14:11:46;8.10;;;3.33;;
38851;SDS011;24605;50.092;9.182;2022-12-07T14:14:15;7.07;;;2.60;;
38851;SDS011;24605;50.092;9.182;2022-12-07T14:16:45;10.63;;;3.28;;
38851;SDS011;24605;50.092;9.182;2022-12-07T14:19:39;11.00;;;3.30;;
38851;SDS011;24605;50.092;9.182;2022-12-07T14:22:18;9.45;;;3.08;;
38851;SDS011;24605;50.092;9.182;2022-12-07T14:24:47;9.68;;;3.28;;
38851;SDS011;24605;50.092;9.182;2022-12-07T14:27:20;7.43;;;3.72;;
38851;SDS011;24605;50.092;9.182;2022-12-07T14:29:50;9.23;;;3.72;;
38851;SDS011;24605;50.092;9.182;2022-12-07T14:32:21;9.05;;;4.43;;
38851;SDS011;24605;50.092;9.182;2022-12-07T14:35:00;11.13;;;5.18;;
38851;SDS011;24605;50.092;9.182;2022-12-07T14:37:28;11.38;;;5.05;;
38851;SDS011;24605;50.092;9.182;2022-12-07T14:39:56;15.50;;;7.22;;
38851;SDS011;24605;50.092;9.182;2022-12-07T14:42:26;14.13;;;5.68;;
38851;SDS011;24605;50.092;9.182;2022-12-07T14:44:54;12.55;;;5.43;;
38851;SDS011;24605;50.092;9.182;2022-12-07T14:47:21;11.27;;;5.28;;
38851;SDS011;24605;50.092;9.182;2022-12-07T14:49:48;13.80;;;5.20;;
38851;SDS011;24605;50.092;9.182;2022-12-07T14:52:15;10.52;;;4.97;;
38851;SDS011;24605;50.092;9.182;2022-12-07T14:54:45;9.57;;;4.53;;
38851;SDS011;24605;50.092;9.182;2022-12-07T14:57:11;13.27;;;6.00;;
38851;SDS011;24605;50.092;9.182;2022-12-07T14:59:39;17.50;;;7.25;;
38851;SDS011;24605;50.092;9.182;2022-12-07T15:02:06;18.70;;;7.15;;
38851;SDS011;24605;50.092;9.182;2022-12-07T15:04:35;22.58;;;8.38;;